sensor_id;sensor_type;location;lat;lon;timestamp;pressure;altitude;pressure_sealevel;temperature;humidity
49297;BME280;35163;48.878;18.040;2023-12-20T00:02:14;98340.34;;;6.05;65.97
49297;BME280;35163;48.878;18.040;2023-12-20T00:04:40;98344.59;;;6.06;65.98
49297;BME280;35163;48.878;18.040;2023-12-20T00:07:07;98348.03;;;6.07;66.21
49297;BME280;35163;48.878;18.040;2023-12-20T00:09:34;98336.94;;;6.05;66.28
49297;BME280;35163;48.878;18.040;2023-12-20T00:12:01;98320.63;;;6.04;65.99
49297;BME280;35163;48.878;18.040;2023-12-20T00:14:28;98316.38;;;6.03;65.97
49297;BME280;35163;48.878;18.040;2023-12-20T00:16:54;98321.53;;;6.02;66.27
49297;BME280;35163;48.878;18.040;2023-12-20T00:19:21;98325.78;;;6.03;66.47
49297;BME280;35163;48.878;18.040;2023-12-20T00:21:48;98318.09;;;6.03;65.96
49297;BME280;35163;48.878;18.040;2023-12-20T00:24:14;98315.56;;;6.01;66.25
49297;BME280;35163;48.878;18.040;2023-12-20T00:26:41;98315.56;;;6.01;66.61
49297;BME280;35163;48.878;18.040;2023-12-20T00:29:08;98311.25;;;6.03;65.91
49297;BME280;35163;48.878;18.040;2023-12-20T00:31:34;98302.69;;;6.03;66.21
49297;BME280;35163;48.878;18.040;2023-12-20T00:34:02;98298.41;;;6.03;66.04
49297;BME280;35163;48.878;18.040;2023-12-20T00:36:29;98302.72;;;6.01;66.26
49297;BME280;35163;48.878;18.040;2023-12-20T00:38:56;98295.03;;;6.01;66.24
49297;BME280;35163;48.878;18.040;2023-12-20T00:41:23;98308.72;;;6.00;65.97
49297;BME280;35163;48.878;18.040;2023-12-20T00:43:50;98302.75;;;6.00;65.95
49297;BME280;35163;48.878;18.040;2023-12-20T00:46:17;98304.47;;;5.98;65.67
49297;BME280;35163;48.878;18.040;2023-12-20T00:48:44;98289.94;;;5.98;65.60
49297;BME280;35163;48.878;18.040;2023-12-20T00:51:12;98289.91;;;6.00;66.05
49297;BME280;35163;48.878;18.040;2023-12-20T00:53:38;98290.78;;;5.99;65.60
49297;BME280;35163;48.878;18.040;2023-12-20T00:56:05;98284.78;;;6.00;65.64
49297;BME280;35163;48.878;18.040;2023-12-20T00:58:32;98279.66;;;5.98;65.79
49297;BME280;35163;48.878;18.040;2023-12-20T01:00:59;98275.41;;;5.97;65.64
49297;BME280;35163;48.878;18.040;2023-12-20T01:03:26;98271.13;;;5.99;65.72
49297;BME280;35163;48.878;18.040;2023-12-20T01:05:53;98269.41;;;5.98;65.80
49297;BME280;35163;48.878;18.040;2023-12-20T01:08:20;98272.00;;;5.96;65.48
49297;BME280;35163;48.878;18.040;2023-12-20T01:10:46;98266.00;;;5.96;65.38
49297;BME280;35163;48.878;18.040;2023-12-20T01:13:13;98257.50;;;5.92;65.73
49297;BME280;35163;48.878;18.040;2023-12-20T01:15:40;98246.34;;;5.95;65.43
49297;BME280;35163;48.878;18.040;2023-12-20T01:18:08;98244.69;;;5.91;65.09
49297;BME280;35163;48.878;18.040;2023-12-20T01:20:35;98248.13;;;5.91;66.01
49297;BME280;35163;48.878;18.040;2023-12-20T01:23:02;98243.84;;;5.92;65.57
49297;BME280;35163;48.878;18.040;2023-12-20T01:25:29;98240.44;;;5.90;65.53
49297;BME280;35163;48.878;18.040;2023-12-20T01:27:56;98233.63;;;5.89;65.54
49297;BME280;35163;48.878;18.040;2023-12-20T01:30:23;98233.63;;;5.89;64.82
49297;BME280;35163;48.878;18.040;2023-12-20T01:32:51;98228.47;;;5.90;65.09
49297;BME280;35163;48.878;18.040;2023-12-20T01:35:17;98234.44;;;5.91;65.04
49297;BME280;35163;48.878;18.040;2023-12-20T01:37:45;98227.59;;;5.91;65.12
49297;BME280;35163;48.878;18.040;2023-12-20T01:40:12;98230.19;;;5.88;65.35
49297;BME280;35163;48.878;18.040;2023-12-20T01:42:39;98229.38;;;5.86;65.14
49297;BME280;35163;48.878;18.040;2023-12-20T01:45:06;98213.97;;;5.86;64.77
49297;BME280;35163;48.878;18.040;2023-12-20T01:47:33;98214.88;;;5.83;65.28
49297;BME280;35163;48.878;18.040;2023-12-20T01:50:00;98218.25;;;5.86;65.15
49297;BME280;35163;48.878;18.040;2023-12-20T01:52:30;98209.69;;;5.87;64.96
49297;BME280;35163;48.878;18.040;2023-12-20T01:54:58;98196.91;;;5.85;65.07
49297;BME280;35163;48.878;18.040;2023-12-20T01:57:30;98195.16;;;5.86;65.25
49297;BME280;35163;48.878;18.040;2023-12-20T01:59:57;98190.91;;;5.84;65.12
49297;BME280;35163;48.878;18.040;2023-12-20T02:02:26;98185.78;;;5.84;65.33
49297;BME280;35163;48.878;18.040;2023-12-20T02:04:53;98187.47;;;5.87;65.02
49297;BME280;35163;48.878;18.040;2023-12-20T02:07:21;98182.31;;;5.86;64.94
49297;BME280;35163;48.878;18.040;2023-12-20T02:09:49;98159.25;;;5.84;65.01
49297;BME280;35163;48.878;18.040;2023-12-20T02:12:16;98150.75;;;5.83;64.80
49297;BME280;35163;48.878;18.040;2023-12-20T02:14:43;98153.31;;;5.82;65.15
49297;BME280;35163;48.878;18.040;2023-12-20T02:17:12;98153.31;;;5.82;65.54
49297;BME280;35163;48.878;18.040;2023-12-20T02:19:39;98140.50;;;5.82;64.76
49297;BME280;35163;48.878;18.040;2023-12-20T02:22:10;98155.03;;;5.81;65.01
49297;BME280;35163;48.878;18.040;2023-12-20T02:24:38;98151.63;;;5.81;65.08
49297;BME280;35163;48.878;18.040;2023-12-20T02:27:06;98149.91;;;5.81;64.79
49297;BME280;35163;48.878;18.040;2023-12-20T02:29:34;98143.88;;;5.82;64.85
49297;BME280;35163;48.878;18.040;2023-12-20T02:32:01;98150.75;;;5.82;64.76
49297;BME280;35163;48.878;18.040;2023-12-20T02:34:28;98145.63;;;5.80;64.76
49297;BME280;35163;48.878;18.040;2023-12-20T02:36:55;98157.66;;;5.78;64.68
49297;BME280;35163;48.878;18.040;2023-12-20T02:39:22;98162.81;;;5.77;64.90
49297;BME280;35163;48.878;18.040;2023-12-20T02:41:49;98157.69;;;5.77;64.86
49297;BME280;35163;48.878;18.040;2023-12-20T02:44:15;98144.88;;;5.75;64.96
49297;BME280;35163;48.878;18.040;2023-12-20T02:46:42;98139.75;;;5.75;65.01
49297;BME280;35163;48.878;18.040;2023-12-20T02:49:09;98143.13;;;5.77;64.98
49297;BME280;35163;48.878;18.040;2023-12-20T02:51:36;98134.56;;;5.78;64.94
49297;BME280;35163;48.878;18.040;2023-12-20T02:54:05;98144.88;;;5.75;65.14
49297;BME280;35163;48.878;18.040;2023-12-20T02:56:32;98140.59;;;5.76;64.80
49297;BME280;35163;48.878;18.040;2023-12-20T02:58:59;98134.66;;;5.72;64.79
49297;BME280;35163;48.878;18.040;2023-12-20T03:01:27;98131.22;;;5.73;64.86
49297;BME280;35163;48.878;18.040;2023-12-20T03:03:54;98138.00;;;5.76;64.65
49297;BME280;35163;48.878;18.040;2023-12-20T03:06:20;98123.53;;;5.73;64.70
49297;BME280;35163;48.878;18.040;2023-12-20T03:08:47;98120.06;;;5.76;64.46
49297;BME280;35163;48.878;18.040;2023-12-20T03:11:14;98126.06;;;5.75;64.54
49297;BME280;35163;48.878;18.040;2023-12-20T03:13:41;98119.25;;;5.72;65.05
49297;BME280;35163;48.878;18.040;2023-12-20T03:16:11;98117.56;;;5.71;64.16
49297;BME280;35163;48.878;18.040;2023-12-20T03:18:39;98121.81;;;5.72;64.70
49297;BME280;35163;48.878;18.040;2023-12-20T03:21:06;98119.25;;;5.72;64.16
49297;BME280;35163;48.878;18.040;2023-12-20T03:23:32;98117.56;;;5.71;64.01
49297;BME280;35163;48.878;18.040;2023-12-20T03:26:00;98120.16;;;5.69;64.19
49297;BME280;35163;48.878;18.040;2023-12-20T03:28:27;98116.69;;;5.72;64.50
49297;BME280;35163;48.878;18.040;2023-12-20T03:30:54;98122.69;;;5.71;64.09
49297;BME280;35163;48.878;18.040;2023-12-20T03:33:21;98118.47;;;5.70;64.02
49297;BME280;35163;48.878;18.040;2023-12-20T03:35:48;98109.94;;;5.68;64.10
49297;BME280;35163;48.878;18.040;2023-12-20T03:38:15;98112.44;;;5.71;64.31
49297;BME280;35163;48.878;18.040;2023-12-20T03:40:41;98112.53;;;5.66;63.87
49297;BME280;35163;48.878;18.040;2023-12-20T03:43:08;98110.78;;;5.67;64.29
49297;BME280;35163;48.878;18.040;2023-12-20T03:45:35;98115.06;;;5.68;64.28
49297;BME280;35163;48.878;18.040;2023-12-20T03:48:02;98108.25;;;5.65;64.05
49297;BME280;35163;48.878;18.040;2023-12-20T03:50:29;98110.81;;;5.65;64.11
49297;BME280;35163;48.878;18.040;2023-12-20T03:52:55;98112.56;;;5.65;64.33
49297;BME280;35163;48.878;18.040;2023-12-20T03:55:22;98114.28;;;5.63;64.33
49297;BME280;35163;48.878;18.040;2023-12-20T03:57:49;98111.78;;;5.59;64.60
49297;BME280;35163;48.878;18.040;2023-12-20T04:00:16;98110.00;;;5.62;64.49
49297;BME280;35163;48.878;18.040;2023-12-20T04:02:43;98110.00;;;5.62;64.35
49297;BME280;35163;48.878;18.040;2023-12-20T04:05:10;98100.63;;;5.61;64.34
49297;BME280;35163;48.878;18.040;2023-12-20T04:07:37;98072.47;;;5.57;64.10
49297;BME280;35163;48.878;18.040;2023-12-20T04:10:05;98094.72;;;5.57;64.19
49297;BME280;35163;48.878;18.040;2023-12-20T04:12:32;98105.84;;;5.56;64.33
49297;BME280;35163;48.878;18.040;2023-12-20T04:14:59;98103.31;;;5.54;64.71
49297;BME280;35163;48.878;18.040;2023-12-20T04:17:26;98100.75;;;5.54;64.31
49297;BME280;35163;48.878;18.040;2023-12-20T04:19:53;98097.28;;;5.55;64.25
49297;BME280;35163;48.878;18.040;2023-12-20T04:22:20;98099.03;;;5.53;64.46
49297;BME280;35163;48.878;18.040;2023-12-20T04:24:46;98089.56;;;5.57;64.21
49297;BME280;35163;48.878;18.040;2023-12-20T04:27:13;98074.22;;;5.55;64.04
49297;BME280;35163;48.878;18.040;2023-12-20T04:29:40;98084.50;;;5.54;64.16
49297;BME280;35163;48.878;18.040;2023-12-20T04:32:07;98080.22;;;5.54;64.13
49297;BME280;35163;48.878;18.040;2023-12-20T04:34:33;98086.19;;;5.55;64.04
49297;BME280;35163;48.878;18.040;2023-12-20T04:37:00;98067.41;;;5.54;64.16
49297;BME280;35163;48.878;18.040;2023-12-20T04:39:28;98050.31;;;5.53;64.18
49297;BME280;35163;48.878;18.040;2023-12-20T04:41:55;98051.19;;;5.52;64.09
49297;BME280;35163;48.878;18.040;2023-12-20T04:44:22;98064.88;;;5.51;64.13
49297;BME280;35163;48.878;18.040;2023-12-20T04:46:48;98058.91;;;5.51;64.15
49297;BME280;35163;48.878;18.040;2023-12-20T04:49:15;98054.59;;;5.51;64.17
49297;BME280;35163;48.878;18.040;2023-12-20T04:51:42;98055.53;;;5.47;64.32
49297;BME280;35163;48.878;18.040;2023-12-20T04:54:09;98062.34;;;5.48;64.21
49297;BME280;35163;48.878;18.040;2023-12-20T04:56:37;98075.19;;;5.48;64.46
49297;BME280;35163;48.878;18.040;2023-12-20T04:59:03;98069.25;;;5.46;64.30
49297;BME280;35163;48.878;18.040;2023-12-20T05:01:30;98069.25;;;5.46;64.60
49297;BME280;35163;48.878;18.040;2023-12-20T05:03:57;98058.97;;;5.47;64.29
49297;BME280;35163;48.878;18.040;2023-12-20T05:06:24;98055.53;;;5.47;64.52
49297;BME280;35163;48.878;18.040;2023-12-20T05:08:51;98063.25;;;5.47;64.08
49297;BME280;35163;48.878;18.040;2023-12-20T05:11:17;98067.44;;;5.51;64.47
49297;BME280;35163;48.878;18.040;2023-12-20T05:13:44;98064.91;;;5.48;64.24
49297;BME280;35163;48.878;18.040;2023-12-20T05:16:16;98062.34;;;5.48;64.06
49297;BME280;35163;48.878;18.040;2023-12-20T05:18:46;98077.75;;;5.48;63.85
49297;BME280;35163;48.878;18.040;2023-12-20T05:21:13;98093.16;;;5.46;63.97
49297;BME280;35163;48.878;18.040;2023-12-20T05:23:40;98082.06;;;5.47;64.03
49297;BME280;35163;48.878;18.040;2023-12-20T05:26:06;98078.63;;;5.47;63.84
49297;BME280;35163;48.878;18.040;2023-12-20T05:28:33;98088.06;;;5.45;63.92
49297;BME280;35163;48.878;18.040;2023-12-20T05:31:00;98090.59;;;5.46;64.08
49297;BME280;35163;48.878;18.040;2023-12-20T05:33:27;98089.75;;;5.47;63.64
49297;BME280;35163;48.878;18.040;2023-12-20T05:35:54;98091.44;;;5.47;63.47
49297;BME280;35163;48.878;18.040;2023-12-20T05:38:21;98085.50;;;5.45;63.59
49297;BME280;35163;48.878;18.040;2023-12-20T05:40:47;98092.34;;;5.46;63.41
49297;BME280;35163;48.878;18.040;2023-12-20T05:43:14;98062.38;;;5.46;63.12
49297;BME280;35163;48.878;18.040;2023-12-20T05:45:41;98047.84;;;5.47;63.18
49297;BME280;35163;48.878;18.040;2023-12-20T05:48:08;98054.72;;;5.45;63.33
49297;BME280;35163;48.878;18.040;2023-12-20T05:50:35;98047.03;;;5.45;63.92
49297;BME280;35163;48.878;18.040;2023-12-20T05:53:03;98040.16;;;5.47;63.64
49297;BME280;35163;48.878;18.040;2023-12-20T05:55:30;98033.34;;;5.44;63.28
49297;BME280;35163;48.878;18.040;2023-12-20T05:57:56;98025.75;;;5.40;63.69
49297;BME280;35163;48.878;18.040;2023-12-20T06:00:23;98030.94;;;5.37;63.58
49297;BME280;35163;48.878;18.040;2023-12-20T06:02:51;98031.78;;;5.37;63.84
49297;BME280;35163;48.878;18.040;2023-12-20T06:05:18;98030.91;;;5.38;63.63
49297;BME280;35163;48.878;18.040;2023-12-20T06:07:45;98034.38;;;5.35;63.70
49297;BME280;35163;48.878;18.040;2023-12-20T06:10:14;98030.09;;;5.34;63.82
49297;BME280;35163;48.878;18.040;2023-12-20T06:12:41;98025.78;;;5.37;63.42
49297;BME280;35163;48.878;18.040;2023-12-20T06:15:08;98024.97;;;5.34;63.80
49297;BME280;35163;48.878;18.040;2023-12-20T06:17:35;98018.06;;;5.38;63.72
49297;BME280;35163;48.878;18.040;2023-12-20T06:20:02;98025.78;;;5.38;63.24
49297;BME280;35163;48.878;18.040;2023-12-20T06:22:29;98024.94;;;5.36;63.44
49297;BME280;35163;48.878;18.040;2023-12-20T06:24:56;98027.44;;;5.39;63.86
49297;BME280;35163;48.878;18.040;2023-12-20T06:27:23;98026.66;;;5.37;63.50
49297;BME280;35163;48.878;18.040;2023-12-20T06:29:49;98034.31;;;5.39;63.23
49297;BME280;35163;48.878;18.040;2023-12-20T06:32:16;98042.88;;;5.38;63.37
49297;BME280;35163;48.878;18.040;2023-12-20T06:34:43;98047.16;;;5.37;63.23
49297;BME280;35163;48.878;18.040;2023-12-20T06:37:10;98045.44;;;5.38;63.38
49297;BME280;35163;48.878;18.040;2023-12-20T06:39:36;98044.50;;;5.42;63.45
49297;BME280;35163;48.878;18.040;2023-12-20T06:42:03;98052.25;;;5.40;63.21
49297;BME280;35163;48.878;18.040;2023-12-20T06:44:30;98043.72;;;5.38;63.37
49297;BME280;35163;48.878;18.040;2023-12-20T06:46:58;98048.84;;;5.38;63.32
49297;BME280;35163;48.878;18.040;2023-12-20T06:49:24;98042.84;;;5.41;63.07
49297;BME280;35163;48.878;18.040;2023-12-20T06:51:51;98045.41;;;5.41;63.48
49297;BME280;35163;48.878;18.040;2023-12-20T06:54:18;98051.34;;;5.41;63.21
49297;BME280;35163;48.878;18.040;2023-12-20T06:56:45;98051.34;;;5.41;63.65
49297;BME280;35163;48.878;18.040;2023-12-20T06:59:11;98040.25;;;5.42;63.44
49297;BME280;35163;48.878;18.040;2023-12-20T07:01:38;98032.56;;;5.39;63.48
49297;BME280;35163;48.878;18.040;2023-12-20T07:04:05;98033.41;;;5.41;63.08
49297;BME280;35163;48.878;18.040;2023-12-20T07:06:32;98031.69;;;5.42;63.57
49297;BME280;35163;48.878;18.040;2023-12-20T07:08:59;98041.63;;;5.61;75.39
49297;BME280;35163;48.878;18.040;2023-12-20T07:11:26;98038.25;;;6.09;92.12
49297;BME280;35163;48.878;18.040;2023-12-20T07:13:52;98034.00;;;6.06;68.12
49297;BME280;35163;48.878;18.040;2023-12-20T07:16:21;98038.28;;;6.07;66.43
49297;BME280;35163;48.878;18.040;2023-12-20T07:18:47;98035.72;;;6.07;65.26
49297;BME280;35163;48.878;18.040;2023-12-20T07:21:14;98033.03;;;6.12;65.74
49297;BME280;35163;48.878;18.040;2023-12-20T07:23:42;98028.75;;;6.13;65.61
49297;BME280;35163;48.878;18.040;2023-12-20T07:26:09;98032.16;;;6.13;65.66
49297;BME280;35163;48.878;18.040;2023-12-20T07:28:35;98038.16;;;6.14;64.58
49297;BME280;35163;48.878;18.040;2023-12-20T07:31:02;98043.28;;;6.14;64.96
49297;BME280;35163;48.878;18.040;2023-12-20T07:33:29;98062.06;;;6.16;65.27
49297;BME280;35163;48.878;18.040;2023-12-20T07:36:05;98065.47;;;6.18;65.65
49297;BME280;35163;48.878;18.040;2023-12-20T07:38:32;98075.72;;;6.18;66.88
49297;BME280;35163;48.878;18.040;2023-12-20T07:40:59;98072.28;;;6.19;66.23
49297;BME280;35163;48.878;18.040;2023-12-20T07:43:25;98071.41;;;6.18;65.13
49297;BME280;35163;48.878;18.040;2023-12-20T07:45:52;98064.59;;;6.17;65.96
49297;BME280;35163;48.878;18.040;2023-12-20T07:48:19;98063.75;;;6.17;66.47
49297;BME280;35163;48.878;18.040;2023-12-20T07:50:46;98074.09;;;6.14;66.32
49297;BME280;35163;48.878;18.040;2023-12-20T07:53:12;98094.56;;;6.17;65.78
49297;BME280;35163;48.878;18.040;2023-12-20T07:55:39;98089.44;;;6.17;65.34
49297;BME280;35163;48.878;18.040;2023-12-20T07:58:06;98080.91;;;6.16;65.46
49297;BME280;35163;48.878;18.040;2023-12-20T08:00:33;98090.28;;;6.17;66.04
49297;BME280;35163;48.878;18.040;2023-12-20T08:03:00;98069.78;;;6.16;65.39
49297;BME280;35163;48.878;18.040;2023-12-20T08:05:29;98080.94;;;6.13;66.15
49297;BME280;35163;48.878;18.040;2023-12-20T08:07:56;98081.81;;;6.12;65.59
49297;BME280;35163;48.878;18.040;2023-12-20T08:10:23;98089.56;;;6.11;65.25
49297;BME280;35163;48.878;18.040;2023-12-20T08:12:50;98093.84;;;6.10;65.27
49297;BME280;35163;48.878;18.040;2023-12-20T08:15:17;98089.59;;;6.09;65.47
49297;BME280;35163;48.878;18.040;2023-12-20T08:17:44;98091.34;;;6.05;65.45
49297;BME280;35163;48.878;18.040;2023-12-20T08:20:11;98091.38;;;6.02;65.40
49297;BME280;35163;48.878;18.040;2023-12-20T08:22:40;98104.19;;;6.05;65.12
49297;BME280;35163;48.878;18.040;2023-12-20T08:25:07;98115.28;;;6.07;65.46
49297;BME280;35163;48.878;18.040;2023-12-20T08:27:41;98110.94;;;6.10;65.44
49297;BME280;35163;48.878;18.040;2023-12-20T08:30:08;98104.13;;;6.08;66.02
49297;BME280;35163;48.878;18.040;2023-12-20T08:32:36;98105.81;;;6.10;65.65
49297;BME280;35163;48.878;18.040;2023-12-20T08:35:03;98110.94;;;6.11;65.51
49297;BME280;35163;48.878;18.040;2023-12-20T08:37:31;98113.50;;;6.10;65.50
49297;BME280;35163;48.878;18.040;2023-12-20T08:39:58;98110.09;;;6.11;65.11
49297;BME280;35163;48.878;18.040;2023-12-20T08:42:24;98109.22;;;6.10;65.57
49297;BME280;35163;48.878;18.040;2023-12-20T08:44:58;98106.63;;;6.12;65.02
49297;BME280;35163;48.878;18.040;2023-12-20T08:47:27;98099.81;;;6.11;65.29
49297;BME280;35163;48.878;18.040;2023-12-20T08:49:54;98097.19;;;6.14;64.88
49297;BME280;35163;48.878;18.040;2023-12-20T08:52:23;98101.50;;;6.12;64.87
49297;BME280;35163;48.878;18.040;2023-12-20T08:54:50;98103.19;;;6.14;64.59
49297;BME280;35163;48.878;18.040;2023-12-20T08:57:20;98102.28;;;6.15;64.54
49297;BME280;35163;48.878;18.040;2023-12-20T08:59:48;98093.75;;;6.13;64.54
49297;BME280;35163;48.878;18.040;2023-12-20T09:02:14;98082.69;;;6.13;64.56
49297;BME280;35163;48.878;18.040;2023-12-20T09:04:41;98095.50;;;6.13;64.42
49297;BME280;35163;48.878;18.040;2023-12-20T09:07:27;98102.31;;;6.14;64.73
49297;BME280;35163;48.878;18.040;2023-12-20T09:09:57;98095.50;;;6.13;64.85
49297;BME280;35163;48.878;18.040;2023-12-20T09:12:24;98107.50;;;6.12;64.93
49297;BME280;35163;48.878;18.040;2023-12-20T09:14:51;98098.03;;;6.14;64.56
49297;BME280;35163;48.878;18.040;2023-12-20T09:17:18;98094.63;;;6.14;64.19
49297;BME280;35163;48.878;18.040;2023-12-20T09:19:45;98082.59;;;6.16;64.43
49297;BME280;35163;48.878;18.040;2023-12-20T09:22:12;98081.69;;;6.18;64.43
49297;BME280;35163;48.878;18.040;2023-12-20T09:24:39;98085.13;;;6.19;64.36
49297;BME280;35163;48.878;18.040;2023-12-20T09:27:06;98087.72;;;6.17;64.32
49297;BME280;35163;48.878;18.040;2023-12-20T09:29:33;98091.97;;;6.18;64.37
49297;BME280;35163;48.878;18.040;2023-12-20T09:31:59;98075.69;;;6.19;64.36
49297;BME280;35163;48.878;18.040;2023-12-20T09:34:26;98076.50;;;6.22;64.13
49297;BME280;35163;48.878;18.040;2023-12-20T09:36:53;98076.50;;;6.23;63.86
49297;BME280;35163;48.878;18.040;2023-12-20T09:39:20;98076.47;;;6.25;64.28
49297;BME280;35163;48.878;18.040;2023-12-20T09:42:02;98067.91;;;6.24;63.98
49297;BME280;35163;48.878;18.040;2023-12-20T09:44:30;98072.22;;;6.22;64.00
49297;BME280;35163;48.878;18.040;2023-12-20T09:46:57;98069.66;;;6.22;64.33
49297;BME280;35163;48.878;18.040;2023-12-20T09:49:25;98063.66;;;6.23;64.47
49297;BME280;35163;48.878;18.040;2023-12-20T09:51:54;98060.22;;;6.23;63.94
49297;BME280;35163;48.878;18.040;2023-12-20T09:54:21;98049.94;;;6.24;63.93
49297;BME280;35163;48.878;18.040;2023-12-20T09:56:51;98045.63;;;6.26;63.78
49297;BME280;35163;48.878;18.040;2023-12-20T09:59:18;98047.34;;;6.24;63.99
49297;BME280;35163;48.878;18.040;2023-12-20T10:01:45;98049.88;;;6.27;63.54
49297;BME280;35163;48.878;18.040;2023-12-20T10:04:12;98043.03;;;6.26;64.22
49297;BME280;35163;48.878;18.040;2023-12-20T10:06:55;98031.94;;;6.24;64.09
49297;BME280;35163;48.878;18.040;2023-12-20T10:09:23;98035.31;;;6.28;64.13
49297;BME280;35163;48.878;18.040;2023-12-20T10:11:54;98043.88;;;6.27;64.13
49297;BME280;35163;48.878;18.040;2023-12-20T10:14:21;98036.16;;;6.27;63.93
49297;BME280;35163;48.878;18.040;2023-12-20T10:16:50;98036.16;;;6.28;64.30
49297;BME280;35163;48.878;18.040;2023-12-20T10:19:17;98042.16;;;6.27;64.04
49297;BME280;35163;48.878;18.040;2023-12-20T10:21:45;98035.34;;;6.26;63.91
49297;BME280;35163;48.878;18.040;2023-12-20T10:24:17;98031.06;;;6.25;64.14
49297;BME280;35163;48.878;18.040;2023-12-20T10:26:44;98034.44;;;6.27;63.96
49297;BME280;35163;48.878;18.040;2023-12-20T10:29:11;98039.59;;;6.27;64.18
49297;BME280;35163;48.878;18.040;2023-12-20T10:31:38;98035.34;;;6.26;64.06
49297;BME280;35163;48.878;18.040;2023-12-20T10:34:09;98033.59;;;6.27;64.27
49297;BME280;35163;48.878;18.040;2023-12-20T10:36:36;98025.94;;;6.25;64.23
49297;BME280;35163;48.878;18.040;2023-12-20T10:39:06;98025.06;;;6.26;63.64
49297;BME280;35163;48.878;18.040;2023-12-20T10:41:36;98020.78;;;6.25;63.49
49297;BME280;35163;48.878;18.040;2023-12-20T10:44:08;98010.59;;;6.22;63.83
49297;BME280;35163;48.878;18.040;2023-12-20T10:46:37;98014.13;;;6.18;64.11
49297;BME280;35163;48.878;18.040;2023-12-20T10:49:06;98018.44;;;6.16;64.02
49297;BME280;35163;48.878;18.040;2023-12-20T10:51:35;98012.53;;;6.11;64.88
49297;BME280;35163;48.878;18.040;2023-12-20T10:54:03;98015.13;;;6.09;65.49
49297;BME280;35163;48.878;18.040;2023-12-20T10:56:32;98007.47;;;6.07;65.95
49297;BME280;35163;48.878;18.040;2023-12-20T10:59:02;98009.22;;;6.05;65.78
49297;BME280;35163;48.878;18.040;2023-12-20T11:01:32;98001.50;;;6.05;66.47
49297;BME280;35163;48.878;18.040;2023-12-20T11:04:00;97997.19;;;6.04;66.52
49297;BME280;35163;48.878;18.040;2023-12-20T11:06:37;97993.81;;;6.05;66.69
49297;BME280;35163;48.878;18.040;2023-12-20T11:09:24;97994.63;;;6.04;67.04
49297;BME280;35163;48.878;18.040;2023-12-20T11:12:10;97996.38;;;6.04;67.45
49297;BME280;35163;48.878;18.040;2023-12-20T11:17:15;97991.84;;;6.18;69.00
49297;BME280;35163;48.878;18.040;2023-12-20T11:22:25;97989.06;;;6.29;68.76
49297;BME280;35163;48.878;18.040;2023-12-20T11:24:52;97991.50;;;6.34;70.63
49297;BME280;35163;48.878;18.040;2023-12-20T11:27:20;97981.97;;;6.41;69.78
49297;BME280;35163;48.878;18.040;2023-12-20T11:29:54;97970.72;;;6.47;70.39
49297;BME280;35163;48.878;18.040;2023-12-20T11:37:28;97983.34;;;6.58;69.64
49297;BME280;35163;48.878;18.040;2023-12-20T11:40:05;97984.03;;;6.63;69.79
49297;BME280;35163;48.878;18.040;2023-12-20T11:42:33;97986.53;;;6.67;69.96
49297;BME280;35163;48.878;18.040;2023-12-20T11:45:02;97977.03;;;6.71;69.90
49297;BME280;35163;48.878;18.040;2023-12-20T11:47:33;97968.44;;;6.72;70.21
49297;BME280;35163;48.878;18.040;2023-12-20T11:50:00;97966.69;;;6.74;69.87
49297;BME280;35163;48.878;18.040;2023-12-20T11:52:30;97969.13;;;6.79;70.05
49297;BME280;35163;48.878;18.040;2023-12-20T11:54:57;97956.22;;;6.82;70.22
49297;BME280;35163;48.878;18.040;2023-12-20T11:57:24;97957.03;;;6.84;69.87
49297;BME280;35163;48.878;18.040;2023-12-20T11:59:52;97957.88;;;6.85;70.48
49297;BME280;35163;48.878;18.040;2023-12-20T12:02:18;97947.59;;;6.85;70.28
49297;BME280;35163;48.878;18.040;2023-12-20T12:04:48;97938.25;;;6.80;69.71
49297;BME280;35163;48.878;18.040;2023-12-20T12:07:15;97939.88;;;6.85;70.31
49297;BME280;35163;48.878;18.040;2023-12-20T12:09:42;97944.06;;;6.89;70.23
49297;BME280;35163;48.878;18.040;2023-12-20T12:12:11;97941.41;;;6.92;69.76
49297;BME280;35163;48.878;18.040;2023-12-20T12:14:40;97934.59;;;6.91;70.02
49297;BME280;35163;48.878;18.040;2023-12-20T12:17:13;97935.47;;;6.90;70.18
49297;BME280;35163;48.878;18.040;2023-12-20T12:19:41;97942.22;;;6.94;69.75
49297;BME280;35163;48.878;18.040;2023-12-20T12:22:14;97933.69;;;6.92;70.01
49297;BME280;35163;48.878;18.040;2023-12-20T12:24:44;97937.16;;;6.91;70.34
49297;BME280;35163;48.878;18.040;2023-12-20T12:27:12;97938.78;;;6.95;69.99
49297;BME280;35163;48.878;18.040;2023-12-20T12:29:39;97935.28;;;6.98;69.85
49297;BME280;35163;48.878;18.040;2023-12-20T12:32:07;97929.25;;;7.00;70.40
49297;BME280;35163;48.878;18.040;2023-12-20T12:34:36;97932.63;;;7.01;70.50
49297;BME280;35163;48.878;18.040;2023-12-20T12:37:06;97933.47;;;7.01;70.56
49297;BME280;35163;48.878;18.040;2023-12-20T12:39:34;97932.56;;;7.04;70.37
49297;BME280;35163;48.878;18.040;2023-12-20T12:42:00;97938.41;;;7.09;70.31
49297;BME280;35163;48.878;18.040;2023-12-20T12:44:27;97940.97;;;7.11;70.09
49297;BME280;35163;48.878;18.040;2023-12-20T12:46:54;97933.19;;;7.14;70.47
49297;BME280;35163;48.878;18.040;2023-12-20T12:49:21;97934.88;;;7.15;70.81
49297;BME280;35163;48.878;18.040;2023-12-20T12:51:48;97936.56;;;7.16;71.02
49297;BME280;35163;48.878;18.040;2023-12-20T12:54:15;97929.63;;;7.18;71.08
49297;BME280;35163;48.878;18.040;2023-12-20T12:56:44;97927.97;;;7.17;70.95
49297;BME280;35163;48.878;18.040;2023-12-20T12:59:11;97917.59;;;7.20;71.40
49297;BME280;35163;48.878;18.040;2023-12-20T13:01:38;97912.44;;;7.20;71.13
49297;BME280;35163;48.878;18.040;2023-12-20T13:04:06;97907.22;;;7.23;71.19
49297;BME280;35163;48.878;18.040;2023-12-20T13:06:38;97896.84;;;7.26;70.91
49297;BME280;35163;48.878;18.040;2023-12-20T13:09:05;97885.69;;;7.27;71.22
49297;BME280;35163;48.878;18.040;2023-12-20T13:11:32;97880.47;;;7.31;71.10
49297;BME280;35163;48.878;18.040;2023-12-20T13:14:01;97895.03;;;7.30;71.11